createdAt,value
2018-05-01T00:00:03.391Z,1002.57
2018-05-01T00:01:03.330Z,1002.63
2018-05-01T00:02:03.298Z,1002.63
2018-05-01T00:03:03.272Z,1002.64
2018-05-01T00:04:03.246Z,1002.72
2018-05-01T00:05:03.254Z,1002.73
2018-05-01T00:06:03.184Z,1002.69
2018-05-01T00:07:03.184Z,1002.65
2018-05-01T00:08:03.130Z,1002.64
2018-05-01T00:09:03.101Z,1002.61
2018-05-01T00:10:03.076Z,1002.62
2018-05-01T00:11:03.083Z,1002.56
2018-05-01T00:12:03.019Z,1002.51
2018-05-01T00:13:02.995Z,1002.51
2018-05-01T00:14:02.961Z,1002.52
2018-05-01T00:15:02.935Z,1002.55
2018-05-01T00:16:02.945Z,1002.58
2018-05-01T00:17:02.882Z,1002.52
2018-05-01T00:18:02.850Z,1002.46
2018-05-01T00:19:02.822Z,1002.46
2018-05-01T00:20:02.832Z,1002.43
2018-05-01T00:21:02.769Z,1002.47
2018-05-01T00:22:03.619Z,1002.52
2018-05-01T00:23:02.747Z,1002.57
2018-05-01T00:24:02.685Z,1002.61
2018-05-01T00:25:02.713Z,1002.58
2018-05-01T00:26:02.638Z,1002.58
2018-05-01T00:27:02.602Z,1002.56
2018-05-01T00:28:02.576Z,1002.61
2018-05-01T00:29:02.552Z,1002.64
2018-05-01T00:30:02.573Z,1002.60
2018-05-01T00:31:02.495Z,1002.60
2018-05-01T00:32:02.469Z,1002.52
2018-05-01T00:33:02.445Z,1002.52
2018-05-01T00:34:02.410Z,1002.41
2018-05-01T00:35:02.413Z,1002.48
2018-05-01T00:36:02.361Z,1002.56
2018-05-01T00:37:02.364Z,1002.56
2018-05-01T00:38:02.302Z,1002.59
2018-05-01T00:39:02.275Z,1002.61
2018-05-01T00:40:02.245Z,1002.59
2018-05-01T00:41:02.221Z,1002.61
2018-05-01T00:42:02.235Z,1002.64
2018-05-01T00:43:02.198Z,1002.62
2018-05-01T00:44:02.142Z,1002.57
2018-05-01T00:45:02.107Z,1002.60
2018-05-01T00:46:02.122Z,1002.60
2018-05-01T00:47:02.060Z,1002.58
2018-05-01T00:48:02.029Z,1002.64
2018-05-01T00:49:02.004Z,1002.67
2018-05-01T00:50:01.981Z,1002.64
2018-05-01T00:51:01.983Z,1002.63
2018-05-01T00:52:01.923Z,1002.70
2018-05-01T00:53:01.903Z,1002.66
2018-05-01T00:54:01.905Z,1002.63
2018-05-01T00:55:01.875Z,1002.64
2018-05-01T00:56:02.533Z,1002.63
2018-05-01T00:57:01.787Z,1002.60
2018-05-01T00:58:01.757Z,1002.66
2018-05-01T00:59:01.733Z,1002.63
2018-05-01T01:00:01.744Z,1002.70
2018-05-01T01:01:01.677Z,1002.72
2018-05-01T01:02:01.650Z,1002.65
2018-05-01T01:03:01.624Z,1002.71
2018-05-01T01:04:01.649Z,1002.72
2018-05-01T01:05:01.577Z,1002.75
2018-05-01T01:06:02.132Z,1002.73
2018-05-01T01:07:01.515Z,1002.77
2018-05-01T01:08:01.492Z,1002.77
2018-05-01T01:09:01.499Z,1002.73
2018-05-01T01:10:01.480Z,1002.73
2018-05-01T01:11:01.412Z,1002.74
2018-05-01T01:12:01.384Z,1002.74
2018-05-01T01:13:01.380Z,1002.79
2018-05-01T01:14:01.326Z,1002.80
2018-05-01T01:15:01.339Z,1002.75
2018-05-01T01:16:01.295Z,1002.77
2018-05-01T01:17:01.246Z,1002.70
2018-05-01T01:18:01.220Z,1002.69
2018-05-01T01:19:01.206Z,1002.70
2018-05-01T01:20:01.205Z,1002.68
2018-05-01T01:21:01.173Z,1002.67
2018-05-01T01:22:01.121Z,1002.69
2018-05-01T01:23:01.086Z,1002.67
2018-05-01T01:24:01.057Z,1002.68
2018-05-01T01:25:01.035Z,1002.62
2018-05-01T01:26:01.052Z,1002.64
2018-05-01T01:27:00.982Z,1002.64
2018-05-01T01:28:00.963Z,1002.62
2018-05-01T01:29:00.924Z,1002.59
2018-05-01T01:30:00.899Z,1002.56
2018-05-01T01:31:00.926Z,1002.60
2018-05-01T01:32:00.851Z,1002.60
2018-05-01T01:33:00.822Z,1002.60
2018-05-01T01:34:00.796Z,1002.58
2018-05-01T01:35:00.766Z,1002.57
2018-05-01T01:36:00.767Z,1002.63
2018-05-01T01:37:00.743Z,1002.59
2018-05-01T01:38:00.683Z,1002.62
2018-05-01T01:39:00.701Z,1002.64
2018-05-01T01:40:00.640Z,1002.62
2018-05-01T01:41:00.608Z,1002.65
2018-05-01T01:42:00.586Z,1002.62
2018-05-01T01:43:00.558Z,1002.65
2018-05-01T01:44:00.569Z,1002.69
2018-05-01T01:45:00.500Z,1002.63
2018-05-01T01:46:00.475Z,1002.66
2018-05-01T01:47:00.454Z,1002.71
2018-05-01T01:48:00.433Z,1002.69
2018-05-01T01:49:00.425Z,1002.70
2018-05-01T01:50:00.370Z,1002.68
2018-05-01T01:51:00.344Z,1002.68
2018-05-01T01:52:00.371Z,1002.69
2018-05-01T01:53:00.293Z,1002.69
2018-05-01T01:54:00.270Z,1002.69
2018-05-01T01:55:00.270Z,1002.63
2018-05-01T01:56:00.217Z,1002.67
2018-05-01T01:57:00.191Z,1002.72
2018-05-01T01:58:00.165Z,1002.77
2018-05-01T01:59:00.143Z,1002.69
2018-05-01T02:00:00.146Z,1002.73
2018-05-01T02:01:00.087Z,1002.82
2018-05-01T02:02:00.059Z,1002.85
2018-05-01T02:03:00.068Z,1002.83
2018-05-01T02:04:00.013Z,1002.84
2018-05-01T02:05:00.015Z,1002.88
2018-05-01T02:05:59.958Z,1002.85
2018-05-01T02:06:59.929Z,1002.85
2018-05-01T02:07:59.904Z,1002.84
2018-05-01T02:08:59.911Z,1002.91
2018-05-01T02:10:00.638Z,1002.89
2018-05-01T02:10:59.834Z,1002.95
2018-05-01T02:11:59.798Z,1002.94
2018-05-01T02:12:59.778Z,1002.92
2018-05-01T02:14:00.194Z,1002.91
2018-05-01T02:14:59.725Z,1002.88
2018-05-01T02:15:59.696Z,1002.89
2018-05-01T02:16:59.668Z,1002.90
2018-05-01T02:17:59.642Z,1002.86
2018-05-01T02:18:59.667Z,1002.85
2018-05-01T02:19:59.593Z,1002.82
2018-05-01T02:20:59.563Z,1002.82
2018-05-01T02:21:59.537Z,1002.79
2018-05-01T02:22:59.518Z,1002.85
2018-05-01T02:23:59.532Z,1002.79
2018-05-01T02:24:59.463Z,1002.82
2018-05-01T02:25:59.439Z,1002.77
2018-05-01T02:26:59.406Z,1002.76
2018-05-01T02:27:59.381Z,1002.66
2018-05-01T02:28:59.401Z,1002.66
2018-05-01T02:29:59.333Z,1002.68
2018-05-01T02:30:59.314Z,1002.68
2018-05-01T02:31:59.280Z,1002.63
2018-05-01T02:32:59.251Z,1002.62
2018-05-01T02:33:59.277Z,1002.61
2018-05-01T02:34:59.194Z,1002.65
2018-05-01T02:35:59.175Z,1002.64
2018-05-01T02:36:59.148Z,1002.67
2018-05-01T02:37:59.113Z,1002.66
2018-05-01T02:38:59.125Z,1002.68
2018-05-01T02:39:59.066Z,1002.65
2018-05-01T02:40:59.069Z,1002.66
2018-05-01T02:41:59.008Z,1002.65
2018-05-01T02:42:58.981Z,1002.65
2018-05-01T02:43:58.964Z,1002.66
2018-05-01T02:44:58.928Z,1002.62
2018-05-01T02:45:58.945Z,1002.66
2018-05-01T02:46:58.890Z,1002.72
2018-05-01T02:47:58.845Z,1002.69
2018-05-01T02:48:58.828Z,1002.66
2018-05-01T02:49:58.802Z,1002.68
2018-05-01T02:50:58.796Z,1002.67
2018-05-01T02:51:58.785Z,1002.76
2018-05-01T02:52:58.715Z,1002.80
2018-05-01T02:53:58.687Z,1002.75
2018-05-01T02:54:58.661Z,1002.72
2018-05-01T02:55:58.671Z,1002.72
2018-05-01T02:56:58.612Z,1002.76
2018-05-01T02:57:58.621Z,1002.68
2018-05-01T02:58:58.552Z,1002.73
2018-05-01T02:59:58.528Z,1002.72
2018-05-01T03:00:58.536Z,1002.69
2018-05-01T03:01:58.506Z,1002.74
2018-05-01T03:02:58.447Z,1002.75
2018-05-01T03:03:58.453Z,1002.76
2018-05-01T03:04:58.389Z,1002.77
2018-05-01T03:05:58.415Z,1002.76
2018-05-01T03:06:58.372Z,1002.77
2018-05-01T03:07:58.308Z,1002.78
2018-05-01T03:08:58.282Z,1002.79
2018-05-01T03:09:58.256Z,1002.79
2018-05-01T03:10:58.227Z,1002.79
2018-05-01T03:11:58.252Z,1002.85
2018-05-01T03:12:58.203Z,1002.83
2018-05-01T03:13:58.152Z,1002.87
2018-05-01T03:14:58.117Z,1002.87
2018-05-01T03:15:58.088Z,1002.93
2018-05-01T03:16:58.123Z,1002.95
2018-05-01T03:17:58.203Z,1002.96
2018-05-01T03:18:58.014Z,1002.99
2018-05-01T03:19:57.992Z,1002.97
2018-05-01T03:20:57.956Z,1002.96
2018-05-01T03:21:57.923Z,1003.03
2018-05-01T03:22:57.932Z,1003.01
2018-05-01T03:23:57.870Z,1002.96
2018-05-01T03:24:57.888Z,1002.98
2018-05-01T03:25:57.824Z,1002.99
2018-05-01T03:26:57.788Z,1003.00
2018-05-01T03:27:57.765Z,1003.04
2018-05-01T03:28:57.745Z,1002.99
2018-05-01T03:29:58.258Z,1003.05
2018-05-01T03:30:57.694Z,1003.06
2018-05-01T03:31:57.664Z,1003.10
2018-05-01T03:32:57.626Z,1003.10
2018-05-01T03:33:57.598Z,1003.11
2018-05-01T03:34:57.622Z,1003.14
2018-05-01T03:35:57.544Z,1003.20
2018-05-01T03:36:57.519Z,1003.15
2018-05-01T03:37:57.495Z,1003.14
2018-05-01T03:38:57.511Z,1003.15
2018-05-01T03:39:57.486Z,1003.18
2018-05-01T03:40:57.419Z,1003.16
2018-05-01T03:41:57.382Z,1003.16
2018-05-01T03:42:57.355Z,1003.20
2018-05-01T03:43:57.334Z,1003.22
2018-05-01T03:44:57.349Z,1003.22
2018-05-01T03:45:57.274Z,1003.17
2018-05-01T03:46:57.256Z,1003.19
2018-05-01T03:47:57.225Z,1003.18
2018-05-01T03:48:58.154Z,1003.18
2018-05-01T03:49:57.208Z,1003.20
2018-05-01T03:50:57.177Z,1003.26
2018-05-01T03:51:57.656Z,1003.26
2018-05-01T03:52:57.123Z,1003.28
2018-05-01T03:53:57.057Z,1003.19
2018-05-01T03:54:57.035Z,1003.20
2018-05-01T03:55:57.071Z,1003.18
2018-05-01T03:56:57.015Z,1003.23
2018-05-01T03:57:56.950Z,1003.23
2018-05-01T03:58:56.973Z,1003.21
2018-05-01T03:59:57.653Z,1003.26
2018-05-01T04:00:56.878Z,1003.20
2018-05-01T04:01:56.850Z,1003.24
2018-05-01T04:02:56.820Z,1003.27
2018-05-01T04:03:56.845Z,1003.29
2018-05-01T04:04:56.764Z,1003.32
2018-05-01T04:05:56.737Z,1003.27
2018-05-01T04:06:56.729Z,1003.35
2018-05-01T04:07:56.685Z,1003.32
2018-05-01T04:08:56.712Z,1003.35
2018-05-01T04:09:56.631Z,1003.43
2018-05-01T04:10:56.611Z,1003.51
2018-05-01T04:11:56.580Z,1003.54
2018-05-01T04:12:56.554Z,1003.57
2018-05-01T04:13:56.572Z,1003.62
2018-05-01T04:14:56.500Z,1003.69
2018-05-01T04:15:56.475Z,1003.70
2018-05-01T04:16:56.450Z,1003.75
2018-05-01T04:17:56.430Z,1003.71
2018-05-01T04:18:56.433Z,1003.70
2018-05-01T04:19:56.369Z,1003.76
2018-05-01T04:20:56.377Z,1003.77
2018-05-01T04:21:56.316Z,1003.75
2018-05-01T04:22:56.287Z,1003.85
2018-05-01T04:23:56.297Z,1003.72
2018-05-01T04:24:56.246Z,1003.76
2018-05-01T04:25:56.215Z,1003.77
2018-05-01T04:26:56.185Z,1003.73
2018-05-01T04:27:56.162Z,1003.73
2018-05-01T04:28:56.186Z,1003.73
2018-05-01T04:29:56.104Z,1003.75
2018-05-01T04:30:56.082Z,1003.74
2018-05-01T04:31:56.065Z,1003.74
2018-05-01T04:32:56.031Z,1003.73
2018-05-01T04:33:56.135Z,1003.76
2018-05-01T04:34:55.977Z,1003.77
2018-05-01T04:35:55.953Z,1003.84
2018-05-01T04:36:55.933Z,1003.78
2018-05-01T04:37:55.897Z,1003.78
2018-05-01T04:38:55.934Z,1003.72
2018-05-01T04:39:55.845Z,1003.71
2018-05-01T04:40:55.819Z,1003.73
2018-05-01T04:41:55.795Z,1003.72
2018-05-01T04:42:55.778Z,1003.72
2018-05-01T04:43:55.773Z,1003.75
2018-05-01T04:44:55.714Z,1003.72
2018-05-01T04:45:55.690Z,1003.76
2018-05-01T04:46:55.698Z,1003.83
2018-05-01T04:47:55.681Z,1003.86
2018-05-01T04:48:55.614Z,1003.81
2018-05-01T04:49:55.620Z,1003.83
2018-05-01T04:50:55.560Z,1003.78
2018-05-01T04:51:55.537Z,1003.79
2018-05-01T04:52:55.546Z,1003.82
2018-05-01T04:53:55.527Z,1003.78
2018-05-01T04:54:55.467Z,1003.78
2018-05-01T04:55:55.494Z,1003.74
2018-05-01T04:56:55.408Z,1003.71
2018-05-01T04:57:55.414Z,1003.73
2018-05-01T04:58:55.354Z,1003.72
2018-05-01T04:59:55.353Z,1003.80
2018-05-01T05:00:55.308Z,1003.81
2018-05-01T05:01:55.317Z,1003.81
2018-05-01T05:02:55.252Z,1003.81
2018-05-01T05:03:55.225Z,1003.84
2018-05-01T05:04:55.205Z,1003.83
2018-05-01T05:05:55.211Z,1003.83
2018-05-01T05:06:55.185Z,1003.88
2018-05-01T05:07:55.181Z,1003.89
2018-05-01T05:08:55.105Z,1003.87
2018-05-01T05:09:55.113Z,1003.87
2018-05-01T05:10:55.069Z,1003.86
2018-05-01T05:11:55.071Z,1003.89
2018-05-01T05:12:54.990Z,1003.88
2018-05-01T05:13:54.972Z,1003.92
2018-05-01T05:14:54.941Z,1003.96
2018-05-01T05:15:54.914Z,1004.00
2018-05-01T05:16:54.925Z,1003.90
2018-05-01T05:17:54.905Z,1003.89
2018-05-01T05:18:54.837Z,1003.91
2018-05-01T05:19:54.815Z,1003.89
2018-05-01T05:20:54.801Z,1003.87
2018-05-01T05:21:54.763Z,1003.86
2018-05-01T05:22:54.798Z,1003.95
2018-05-01T05:23:54.707Z,1003.95
2018-05-01T05:24:54.689Z,1003.93
2018-05-01T05:25:54.660Z,1003.95
2018-05-01T05:26:54.637Z,1004.00
2018-05-01T05:27:54.641Z,1004.02
2018-05-01T05:28:54.619Z,1004.08
2018-05-01T05:29:54.552Z,1004.02
2018-05-01T05:30:54.531Z,1003.96
2018-05-01T05:31:54.502Z,1004.00
2018-05-01T05:32:54.476Z,1004.05
2018-05-01T05:33:54.492Z,1004.13
2018-05-01T05:34:54.429Z,1004.10
2018-05-01T05:35:54.396Z,1004.20
2018-05-01T05:36:54.372Z,1004.24
2018-05-01T05:37:54.345Z,1004.18
2018-05-01T05:38:54.359Z,1004.21
2018-05-01T05:39:54.295Z,1004.26
2018-05-01T05:40:54.269Z,1004.25
2018-05-01T05:41:54.251Z,1004.26
2018-05-01T05:42:54.223Z,1004.30
2018-05-01T05:43:54.314Z,1004.27
2018-05-01T05:44:54.225Z,1004.29
2018-05-01T05:45:54.141Z,1004.33
2018-05-01T05:46:54.117Z,1004.30
2018-05-01T05:47:54.092Z,1004.37
2018-05-01T05:48:54.076Z,1004.26
2018-05-01T05:49:54.177Z,1004.27
2018-05-01T05:50:54.019Z,1004.35
2018-05-01T05:51:54.038Z,1004.39
2018-05-01T05:52:53.970Z,1004.28
2018-05-01T05:53:53.940Z,1004.30
2018-05-01T05:54:53.958Z,1004.35
2018-05-01T05:55:53.927Z,1004.35
2018-05-01T05:56:53.874Z,1004.35
2018-05-01T05:57:53.839Z,1004.38
2018-05-01T05:58:53.818Z,1004.46
2018-05-01T05:59:53.794Z,1004.40
2018-05-01T06:00:53.828Z,1004.35
2018-05-01T06:01:53.742Z,1004.26
2018-05-01T06:02:53.754Z,1004.42
2018-05-01T06:03:53.698Z,1004.29
2018-05-01T06:04:53.666Z,1004.34
2018-05-01T06:05:53.644Z,1004.36
2018-05-01T06:06:53.611Z,1004.35
2018-05-01T06:07:53.626Z,1004.36
2018-05-01T06:08:53.595Z,1004.33
2018-05-01T06:09:53.539Z,1004.33
2018-05-01T06:10:53.515Z,1004.34
2018-05-01T06:11:53.526Z,1004.28
2018-05-01T06:12:53.467Z,1004.31
2018-05-01T06:13:53.441Z,1004.42
2018-05-01T06:14:53.428Z,1004.45
2018-05-01T06:15:53.386Z,1004.42
2018-05-01T06:16:53.743Z,1004.46
2018-05-01T06:17:53.356Z,1004.46
2018-05-01T06:18:53.311Z,1004.43
2018-05-01T06:19:53.291Z,1004.46
2018-05-01T06:20:53.260Z,1004.48
2018-05-01T06:21:53.291Z,1004.58
2018-05-01T06:22:53.207Z,1004.52
2018-05-01T06:23:53.192Z,1004.60
2018-05-01T06:24:53.164Z,1004.61
2018-05-01T06:25:53.252Z,1004.59
2018-05-01T06:26:53.334Z,1004.65
2018-05-01T06:27:53.293Z,1004.53
2018-05-01T06:28:53.336Z,1004.64
2018-05-01T06:29:53.164Z,1004.64
2018-05-01T06:30:53.039Z,1004.68
2018-05-01T06:31:53.021Z,1004.72
2018-05-01T06:32:52.954Z,1004.65
2018-05-01T06:33:52.931Z,1004.64
2018-05-01T06:34:52.961Z,1004.64
2018-05-01T06:35:52.885Z,1004.56
2018-05-01T06:36:52.918Z,1004.56
2018-05-01T06:37:52.833Z,1004.54
2018-05-01T06:38:52.805Z,1004.61
2018-05-01T06:39:52.785Z,1004.52
2018-05-01T06:40:52.776Z,1004.55
2018-05-01T06:41:52.773Z,1004.62
2018-05-01T06:42:52.708Z,1004.63
2018-05-01T06:43:52.708Z,1004.74
2018-05-01T06:44:52.653Z,1004.71
2018-05-01T06:45:52.629Z,1004.79
2018-05-01T06:46:52.638Z,1004.79
2018-05-01T06:47:52.608Z,1004.82
2018-05-01T06:48:52.549Z,1004.82
2018-05-01T06:49:52.565Z,1004.69
2018-05-01T06:50:52.517Z,1004.86
2018-05-01T06:51:52.479Z,1004.87
2018-05-01T06:52:52.452Z,1004.95
2018-05-01T06:53:52.424Z,1004.78
2018-05-01T06:54:52.720Z,1004.72
2018-05-01T06:55:52.423Z,1004.83
2018-05-01T06:56:52.390Z,1004.93
2018-05-01T06:57:52.374Z,1004.97
2018-05-01T06:58:52.300Z,1004.95
2018-05-01T06:59:52.362Z,1004.86
2018-05-01T07:00:52.288Z,1004.85
2018-05-01T07:01:52.229Z,1004.83
2018-05-01T07:02:52.202Z,1004.74
2018-05-01T07:03:52.308Z,1004.75
2018-05-01T07:04:52.163Z,1004.91
2018-05-01T07:05:52.128Z,1004.88
2018-05-01T07:06:52.145Z,1004.86
2018-05-01T07:07:52.082Z,1004.91
2018-05-01T07:08:52.646Z,1004.82
2018-05-01T07:09:52.043Z,1004.88
2018-05-01T07:10:52.009Z,1004.97
2018-05-01T07:11:51.983Z,1004.87
2018-05-01T07:12:52.003Z,1004.90
2018-05-01T07:13:51.930Z,1004.85
2018-05-01T07:14:51.921Z,1004.87
2018-05-01T07:15:51.914Z,1004.83
2018-05-01T07:16:51.894Z,1004.85
2018-05-01T07:17:51.865Z,1004.90
2018-05-01T07:18:51.805Z,1004.78
2018-05-01T07:19:51.945Z,1004.82
2018-05-01T07:20:51.761Z,1004.84
2018-05-01T07:21:51.728Z,1004.82
2018-05-01T07:22:52.238Z,1004.81
2018-05-01T07:23:51.724Z,1004.82
2018-05-01T07:24:51.655Z,1004.86
2018-05-01T07:25:53.100Z,1004.81
2018-05-01T07:26:51.605Z,1004.80
2018-05-01T07:27:51.580Z,1004.88
2018-05-01T07:28:51.655Z,1004.84
2018-05-01T07:29:51.542Z,1004.86
2018-05-01T07:30:51.518Z,1004.84
2018-05-01T07:31:51.481Z,1004.84
2018-05-01T07:32:51.453Z,1004.87
2018-05-01T07:33:52.096Z,1004.99
2018-05-01T07:34:51.406Z,1004.96
2018-05-01T07:35:51.383Z,1004.98
2018-05-01T07:36:51.356Z,1004.86
2018-05-01T07:37:51.327Z,1004.85
2018-05-01T07:38:51.334Z,1004.92
2018-05-01T07:39:51.275Z,1004.96
2018-05-01T07:40:51.254Z,1004.91
2018-05-01T07:41:51.319Z,1005.04
2018-05-01T07:42:51.198Z,1004.92
2018-05-01T07:43:51.174Z,1004.91
2018-05-01T07:44:51.183Z,1005.03
2018-05-01T07:45:51.127Z,1004.94
2018-05-01T07:46:51.104Z,1004.98
2018-05-01T07:47:51.076Z,1005.00
2018-05-01T07:48:51.050Z,1005.16
2018-05-01T07:49:51.077Z,1004.96
2018-05-01T07:50:50.998Z,1005.05
2018-05-01T07:51:50.972Z,1005.03
2018-05-01T07:52:50.954Z,1005.01
2018-05-01T07:53:50.923Z,1005.13
2018-05-01T07:54:50.931Z,1005.10
2018-05-01T07:55:50.880Z,1005.03
2018-05-01T07:56:50.884Z,1005.07
2018-05-01T07:57:50.832Z,1005.06
2018-05-01T07:58:50.796Z,1005.09
2018-05-01T07:59:50.776Z,1005.17
2018-05-01T08:00:50.802Z,1005.12
2018-05-01T08:01:50.720Z,1005.08
2018-05-01T08:02:50.774Z,1005.14
2018-05-01T08:03:50.771Z,1005.16
2018-05-01T08:04:50.735Z,1005.23
2018-05-01T08:05:50.652Z,1005.22
2018-05-01T08:06:50.593Z,1005.18
2018-05-01T08:07:50.570Z,1005.20
2018-05-01T08:08:50.602Z,1005.23
2018-05-01T08:09:50.517Z,1005.27
2018-05-01T08:10:50.514Z,1005.24
2018-05-01T08:11:50.753Z,1005.23
2018-05-01T08:12:50.438Z,1005.26
2018-05-01T08:13:50.451Z,1005.23
2018-05-01T08:14:50.390Z,1005.34
2018-05-01T08:15:50.400Z,1005.37
2018-05-01T08:16:50.374Z,1005.31
2018-05-01T08:17:50.353Z,1005.33
2018-05-01T08:18:50.290Z,1005.36
2018-05-01T08:19:50.264Z,1005.40
2018-05-01T08:20:50.239Z,1005.36
2018-05-01T08:21:50.212Z,1005.39
2018-05-01T08:22:50.242Z,1005.33
2018-05-01T08:23:50.249Z,1005.43
2018-05-01T08:24:50.199Z,1005.52
2018-05-01T08:25:50.110Z,1005.59
2018-05-01T08:26:50.090Z,1005.53
2018-05-01T08:27:50.127Z,1005.54
2018-05-01T08:28:50.038Z,1005.61
2018-05-01T08:29:50.012Z,1005.65
2018-05-01T08:30:49.996Z,1005.63
2018-05-01T08:31:49.961Z,1005.58
2018-05-01T08:32:49.975Z,1005.57
2018-05-01T08:33:49.916Z,1005.60
2018-05-01T08:34:49.887Z,1005.70
2018-05-01T08:35:49.895Z,1005.64
2018-05-01T08:36:49.884Z,1005.78
2018-05-01T08:37:49.832Z,1005.66
2018-05-01T08:38:49.838Z,1005.74
2018-05-01T08:39:49.859Z,1005.70
2018-05-01T08:40:49.751Z,1005.60
2018-05-01T08:41:49.721Z,1005.67
2018-05-01T08:42:49.689Z,1005.70
2018-05-01T08:43:49.720Z,1005.62
2018-05-01T08:44:49.744Z,1005.64
2018-05-01T08:45:50.216Z,1005.61
2018-05-01T08:46:49.597Z,1005.63
2018-05-01T08:47:49.567Z,1005.61
2018-05-01T08:48:49.554Z,1005.60
2018-05-01T08:49:49.547Z,1005.70
2018-05-01T08:50:49.489Z,1005.64
2018-05-01T08:51:49.468Z,1005.61
2018-05-01T08:52:49.441Z,1005.60
2018-05-01T08:53:49.425Z,1005.63
2018-05-01T08:54:49.451Z,1005.61
2018-05-01T08:55:49.363Z,1005.64
2018-05-01T08:56:49.389Z,1005.55
2018-05-01T08:57:49.312Z,1005.57
2018-05-01T08:58:49.284Z,1005.65
2018-05-01T08:59:49.261Z,1005.59
2018-05-01T09:00:49.238Z,1005.63
2018-05-01T09:01:49.250Z,1005.63
2018-05-01T09:02:49.188Z,1005.52
2018-05-01T09:03:49.712Z,1005.59
2018-05-01T09:04:49.186Z,1005.63
2018-05-01T09:05:49.109Z,1005.74
2018-05-01T09:06:49.092Z,1005.71
2018-05-01T09:07:49.062Z,1005.59
2018-05-01T09:08:49.069Z,1005.72
2018-05-01T09:09:49.029Z,1005.73
2018-05-01T09:10:48.978Z,1005.85
2018-05-01T09:11:48.954Z,1005.74
2018-05-01T09:12:48.933Z,1005.78
2018-05-01T09:13:48.998Z,1005.76
2018-05-01T09:14:48.882Z,1005.79
2018-05-01T09:15:48.856Z,1005.82
2018-05-01T09:16:48.833Z,1005.80
2018-05-01T09:17:49.025Z,1005.93
2018-05-01T09:18:48.949Z,1005.88
2018-05-01T09:19:48.761Z,1005.86
2018-05-01T09:20:48.736Z,1005.84
2018-05-01T09:21:48.704Z,1005.80
2018-05-01T09:22:48.674Z,1005.90
2018-05-01T09:23:48.700Z,1006.01
2018-05-01T09:24:48.625Z,1005.85
2018-05-01T09:25:48.605Z,1005.87
2018-05-01T09:26:48.583Z,1005.93
2018-05-01T09:27:48.549Z,1005.85
2018-05-01T09:28:48.575Z,1005.90
2018-05-01T09:29:48.508Z,1005.84
2018-05-01T09:30:48.478Z,1005.90
2018-05-01T09:31:48.448Z,1005.94
2018-05-01T09:32:48.428Z,1005.93
2018-05-01T09:33:48.457Z,1005.95
2018-05-01T09:34:48.376Z,1005.97
2018-05-01T09:35:48.389Z,1005.95
2018-05-01T09:36:48.359Z,1005.98
2018-05-01T09:37:48.301Z,1006.05
2018-05-01T09:38:48.270Z,1005.96
2018-05-01T09:39:48.253Z,1006.07
2018-05-01T09:40:48.222Z,1006.05
2018-05-01T09:41:48.274Z,1006.18
2018-05-01T09:42:48.172Z,1006.08
2018-05-01T09:43:48.189Z,1006.05
2018-05-01T09:44:48.123Z,1006.08
2018-05-01T09:45:48.096Z,1006.19
2018-05-01T09:46:48.627Z,1006.05
2018-05-01T09:47:48.044Z,1006.12
2018-05-01T09:48:48.083Z,1006.07
2018-05-01T09:49:47.992Z,1006.17
2018-05-01T09:50:47.965Z,1006.16
2018-05-01T09:51:47.985Z,1006.16
2018-05-01T09:52:47.943Z,1006.16
2018-05-01T09:53:47.891Z,1006.21
2018-05-01T09:54:47.901Z,1006.21
2018-05-01T09:55:47.850Z,1006.20
2018-05-01T09:56:47.813Z,1006.20
2018-05-01T09:57:47.789Z,1006.15
2018-05-01T09:58:47.821Z,1006.15
2018-05-01T09:59:47.737Z,1006.25
2018-05-01T10:00:47.712Z,1006.27
2018-05-01T10:01:47.795Z,1006.25
2018-05-01T10:02:47.681Z,1006.22
2018-05-01T10:03:47.707Z,1006.10
2018-05-01T10:04:47.651Z,1006.19
2018-05-01T10:05:47.598Z,1006.20
2018-05-01T10:06:47.558Z,1006.22
2018-05-01T10:07:47.546Z,1006.22
2018-05-01T10:08:47.562Z,1006.27
2018-05-01T10:09:47.502Z,1006.18
2018-05-01T10:10:47.480Z,1006.19
2018-05-01T10:11:47.432Z,1006.20
2018-05-01T10:12:47.413Z,1006.09
2018-05-01T10:13:47.497Z,1006.17
2018-05-01T10:14:47.367Z,1006.18
2018-05-01T10:15:47.375Z,1006.23
2018-05-01T10:16:47.319Z,1006.23
2018-05-01T10:17:47.298Z,1006.20
2018-05-01T10:18:47.265Z,1006.22
2018-05-01T10:19:47.234Z,1006.23
2018-05-01T10:20:47.258Z,1006.20
2018-05-01T10:21:47.184Z,1006.23
2018-05-01T10:22:47.170Z,1006.21
2018-05-01T10:23:47.156Z,1006.23
2018-05-01T10:24:47.126Z,1006.26
2018-05-01T10:25:47.233Z,1006.34
2018-05-01T10:26:47.085Z,1006.18
2018-05-01T10:27:47.050Z,1006.34
2018-05-01T10:28:47.023Z,1006.29
2018-05-01T10:29:46.989Z,1006.17
2018-05-01T10:30:47.010Z,1006.23
2018-05-01T10:31:46.951Z,1006.19
2018-05-01T10:32:46.911Z,1006.18
2018-05-01T10:33:46.887Z,1006.18
2018-05-01T10:34:46.867Z,1006.22
2018-05-01T10:35:46.888Z,1006.19
2018-05-01T10:36:46.812Z,1006.26
2018-05-01T10:37:46.788Z,1006.30
2018-05-01T10:38:46.796Z,1006.22
2018-05-01T10:39:46.764Z,1006.28
2018-05-01T10:40:46.758Z,1006.16
2018-05-01T10:41:46.688Z,1006.22
2018-05-01T10:42:46.680Z,1006.24
2018-05-01T10:43:46.668Z,1006.28
2018-05-01T10:44:46.614Z,1006.16
2018-05-01T10:45:46.727Z,1006.18
2018-05-01T10:46:46.561Z,1006.24
2018-05-01T10:47:46.541Z,1006.29
2018-05-01T10:48:46.514Z,1006.27
2018-05-01T10:49:46.502Z,1006.25
2018-05-01T10:50:46.508Z,1006.33
2018-05-01T10:51:46.437Z,1006.25
2018-05-01T10:52:46.420Z,1006.22
2018-05-01T10:53:46.426Z,1006.20
2018-05-01T10:54:46.423Z,1006.23
2018-05-01T10:55:46.338Z,1006.19
2018-05-01T10:56:46.347Z,1006.23
2018-05-01T10:57:46.292Z,1006.23
2018-05-01T10:58:46.271Z,1006.34
2018-05-01T10:59:46.299Z,1006.24
2018-05-01T11:00:46.216Z,1006.22
2018-05-01T11:01:46.188Z,1006.22
2018-05-01T11:02:46.225Z,1006.31
2018-05-01T11:03:46.140Z,1006.27
2018-05-01T11:04:46.156Z,1006.27
2018-05-01T11:05:46.094Z,1006.28
2018-05-01T11:06:46.072Z,1006.33
2018-05-01T11:07:46.079Z,1006.36
2018-05-01T11:08:46.021Z,1006.44
2018-05-01T11:09:46.059Z,1006.39
2018-05-01T11:10:45.990Z,1006.60
2018-05-01T11:11:46.002Z,1006.46
2018-05-01T11:12:45.924Z,1006.56
2018-05-01T11:13:45.936Z,1006.47
2018-05-01T11:14:45.879Z,1006.44
2018-05-01T11:15:45.990Z,1006.44
2018-05-01T11:16:45.827Z,1006.54
2018-05-01T11:17:45.825Z,1006.45
2018-05-01T11:18:45.792Z,1006.47
2018-05-01T11:19:45.802Z,1006.50
2018-05-01T11:20:45.795Z,1006.47
2018-05-01T11:21:45.714Z,1006.45
2018-05-01T11:22:45.697Z,1006.52
2018-05-01T11:23:45.665Z,1006.55
2018-05-01T11:24:45.735Z,1006.54
2018-05-01T11:25:45.633Z,1006.57
2018-05-01T11:26:45.621Z,1006.56
2018-05-01T11:27:45.580Z,1006.57
2018-05-01T11:28:45.548Z,1006.55
2018-05-01T11:29:45.561Z,1006.58
2018-05-01T11:30:45.520Z,1006.64
2018-05-01T11:31:45.546Z,1006.61
2018-05-01T11:32:45.466Z,1006.66
2018-05-01T11:33:45.427Z,1006.68
2018-05-01T11:34:45.410Z,1006.73
2018-05-01T11:35:45.423Z,1006.67
2018-05-01T11:36:45.365Z,1006.68
2018-05-01T11:37:45.339Z,1006.73
2018-05-01T11:38:45.314Z,1006.72
2018-05-01T11:39:45.293Z,1006.71
2018-05-01T11:40:45.374Z,1006.79
2018-05-01T11:41:45.264Z,1006.85
2018-05-01T11:42:45.243Z,1006.80
2018-05-01T11:43:45.216Z,1006.89
2018-05-01T11:44:45.205Z,1007.00
2018-05-01T11:45:45.197Z,1006.83
2018-05-01T11:46:45.162Z,1006.86
2018-05-01T11:47:45.148Z,1006.89
2018-05-01T11:48:45.099Z,1006.98
2018-05-01T11:49:45.060Z,1006.93
2018-05-01T11:50:45.050Z,1007.03
2018-05-01T11:51:45.049Z,1007.07
2018-05-01T11:52:44.996Z,1006.99
2018-05-01T11:53:44.994Z,1007.07
2018-05-01T11:54:45.005Z,1007.06
2018-05-01T11:55:44.960Z,1007.04
2018-05-01T11:56:44.903Z,1007.12
2018-05-01T11:57:44.881Z,1007.10
2018-05-01T11:58:44.867Z,1007.20
2018-05-01T11:59:44.883Z,1007.15
2018-05-01T12:00:44.824Z,1007.22
2018-05-01T12:01:44.797Z,1007.33
2018-05-01T12:02:44.789Z,1007.29
2018-05-01T12:03:44.752Z,1007.29
2018-05-01T12:04:44.772Z,1007.31